Time;durP1;ratioP1;P1;durP2;ratioP2;P2;SDS_P1;SDS_P2;PMS_P1;PMS_P2;Temp;Humidity;BMP_temperature;BMP_pressure;BME280_temperature;BME280_humidity;BME280_pressure;Samples;Min_cycle;Max_cycle;Signal;HPM_P1;HPM_P2
2023/10/02 00:01:23;;;;;;;12.37;7.77;;;;;;;12.51;100.00;97145.38;5008293;28;105331;-75
2023/10/02 00:04:16;;;;;;;12.00;7.53;;;;;;;12.31;100.00;97137.09;4992182;28;102254;-75
2023/10/02 00:06:40;;;;;;;12.93;7.27;;;;;;;12.31;100.00;97134.44;5011450;28;104922;-75
2023/10/02 00:09:07;;;;;;;13.27;7.80;;;;;;;12.22;100.00;97134.00;5008961;28;102053;-75
2023/10/02 00:11:36;;;;;;;13.37;7.90;;;;;;;12.02;100.00;97130.19;5010229;28;102617;-75
2023/10/02 00:14:22;;;;;;;10.53;7.07;;;;;;;11.99;100.00;97144.03;5009628;28;102769;-75
2023/10/02 00:16:59;;;;;;;12.03;7.90;;;;;;;11.93;100.00;97137.00;5010318;28;101847;-80
2023/10/02 00:19:32;;;;;;;13.43;7.93;;;;;;;12.03;100.00;97140.63;5008274;28;105195;-81
2023/10/02 00:22:04;;;;;;;12.83;7.40;;;;;;;11.98;100.00;97143.19;5008110;28;105132;-75
2023/10/02 00:24:33;;;;;;;12.47;7.60;;;;;;;11.90;100.00;97140.94;5010065;28;101756;-76
2023/10/02 00:27:01;;;;;;;12.77;8.20;;;;;;;11.79;100.00;97139.16;5009828;28;103044;-76
2023/10/02 00:29:28;;;;;;;11.70;7.53;;;;;;;11.85;100.00;97137.38;5011414;28;105687;-76
2023/10/02 00:31:56;;;;;;;12.33;8.13;;;;;;;11.89;100.00;97133.19;5008554;28;104894;-75
2023/10/02 00:34:31;;;;;;;11.47;7.97;;;;;;;11.91;100.00;97133.72;5008005;28;105563;-76
2023/10/02 00:37:12;;;;;;;11.17;7.10;;;;;;;11.88;100.00;97129.69;5025231;28;101870;-76
2023/10/02 00:39:40;;;;;;;14.53;8.33;;;;;;;11.93;100.00;97129.00;5008513;28;105007;-76
2023/10/02 00:42:15;;;;;;;13.23;7.80;;;;;;;11.91;100.00;97125.72;5007721;28;104124;-76
2023/10/02 00:44:52;;;;;;;13.13;7.53;;;;;;;11.91;100.00;97131.06;5008572;28;102135;-77
2023/10/02 00:47:42;;;;;;;12.57;7.93;;;;;;;11.78;100.00;97128.72;5008603;28;105057;-77
2023/10/02 00:50:22;;;;;;;10.83;7.17;;;;;;;11.58;100.00;97128.31;5007742;28;105340;-77
2023/10/02 00:52:56;;;;;;;13.57;7.77;;;;;;;11.64;100.00;97130.03;5011857;28;101876;-77
2023/10/02 00:55:25;;;;;;;12.13;7.57;;;;;;;11.66;100.00;97130.63;5007766;28;105458;-77
2023/10/02 00:57:56;;;;;;;13.23;8.27;;;;;;;11.75;100.00;97129.19;5008171;28;102021;-77
2023/10/02 01:00:35;;;;;;;13.17;8.23;;;;;;;11.75;100.00;97132.66;5008209;28;105757;-75
2023/10/02 01:03:04;;;;;;;13.80;8.67;;;;;;;11.91;100.00;97131.06;5026561;28;105728;-75
2023/10/02 01:05:42;;;;;;;13.87;8.37;;;;;;;12.02;100.00;97135.53;5028511;28;101887;-75
2023/10/02 01:08:24;;;;;;;14.63;8.37;;;;;;;11.95;100.00;97134.88;5011698;28;105822;-74
2023/10/02 01:10:59;;;;;;;14.30;9.20;;;;;;;11.93;100.00;97134.31;5010801;28;105150;-75
2023/10/02 01:13:28;;;;;;;12.60;8.13;;;;;;;11.77;100.00;97124.44;5011745;28;101950;-75
2023/10/02 01:15:56;;;;;;;14.57;8.43;;;;;;;11.80;100.00;97130.09;5014136;28;104311;-75
2023/10/02 01:18:27;;;;;;;13.00;8.03;;;;;;;11.81;100.00;97122.88;5011490;28;102042;-75
2023/10/02 01:20:59;;;;;;;10.87;7.67;;;;;;;11.84;100.00;97120.56;5011433;28;105581;-75
2023/10/02 01:23:28;;;;;;;13.93;8.43;;;;;;;11.82;100.00;97116.53;5010719;28;105753;-75
2023/10/02 01:26:01;;;;;;;12.73;8.07;;;;;;;11.58;100.00;97115.81;5011102;28;101949;-77
2023/10/02 01:28:49;;;;;;;12.00;7.70;;;;;;;11.67;100.00;97118.94;5011410;28;104972;-77
2023/10/02 01:33:57;;;;;;;12.03;7.80;;;;;;;11.70;100.00;97113.09;5010826;28;101965;-74
2023/10/02 01:36:28;;;;;;;13.97;8.33;;;;;;;11.73;100.00;97115.31;5011121;28;105248;-74
2023/10/02 01:38:59;;;;;;;13.03;8.40;;;;;;;11.50;100.00;97112.72;5015545;28;102901;-74
2023/10/02 01:41:28;;;;;;;14.87;8.67;;;;;;;11.65;100.00;97115.66;5010609;28;105038;-75
2023/10/02 01:43:59;;;;;;;12.30;8.07;;;;;;;11.60;100.00;97103.06;5010438;28;105406;-75
2023/10/02 01:46:28;;;;;;;14.23;8.67;;;;;;;11.71;100.00;97109.38;5010739;28;101948;-75
2023/10/02 01:48:55;;;;;;;13.60;8.37;;;;;;;11.74;100.00;97114.25;5011082;28;105412;-75
2023/10/02 01:51:26;;;;;;;11.43;7.80;;;;;;;11.69;100.00;97114.16;5010290;28;105456;-76
2023/10/02 01:53:54;;;;;;;14.40;7.20;;;;;;;11.42;100.00;97110.41;5010643;28;101844;-76
2023/10/02 01:56:22;;;;;;;12.57;7.07;;;;;;;11.31;100.00;97104.09;5027566;28;105287;-76
2023/10/02 01:58:52;;;;;;;9.77;6.70;;;;;;;11.21;100.00;97105.75;5013528;28;105530;-76
2023/10/02 02:01:21;;;;;;;9.83;5.73;;;;;;;11.16;100.00;97106.47;5010726;28;105049;-76
2023/10/02 02:03:55;;;;;;;9.67;6.87;;;;;;;11.07;100.00;97112.41;5009998;28;105922;-76
2023/10/02 02:06:24;;;;;;;10.33;7.13;;;;;;;11.17;100.00;97112.63;5010683;28;101954;-76
2023/10/02 02:08:58;;;;;;;9.63;6.77;;;;;;;11.17;100.00;97109.94;5010599;28;105055;-74
2023/10/02 02:11:29;;;;;;;11.10;7.67;;;;;;;11.23;100.00;97106.34;5010136;28;105504;-74
2023/10/02 02:13:59;;;;;;;10.67;6.97;;;;;;;11.13;100.00;97108.81;5010354;28;101908;-73
2023/10/02 02:16:31;;;;;;;9.33;6.37;;;;;;;11.15;100.00;97099.53;5010604;28;105370;-73
2023/10/02 02:19:01;;;;;;;9.60;6.17;;;;;;;11.02;100.00;97104.31;5026406;28;105447;-73
2023/10/02 02:21:29;;;;;;;10.03;6.80;;;;;;;10.91;100.00;97105.94;5014085;28;101884;-73
2023/10/02 02:24:06;;;;;;;7.37;5.67;;;;;;;10.90;100.00;97106.19;5009721;28;105579;-73
2023/10/02 02:26:34;;;;;;;7.20;5.27;;;;;;;10.93;100.00;97100.41;5010291;28;101924;-73
2023/10/02 02:29:03;;;;;;;9.40;6.23;;;;;;;10.94;100.00;97099.34;5010353;28;104979;-73
2023/10/02 02:31:30;;;;;;;8.43;5.87;;;;;;;10.83;100.00;97106.31;5009487;28;105984;-73
2023/10/02 02:33:58;;;;;;;10.50;6.37;;;;;;;10.86;100.00;97100.50;5010395;28;101967;-74
2023/10/02 02:36:27;;;;;;;10.70;6.97;;;;;;;10.93;100.00;97103.06;5010171;28;105406;-75
2023/10/02 02:39:15;;;;;;;10.93;7.27;;;;;;;10.99;100.00;97110.91;5009576;28;104042;-76
2023/10/02 02:41:47;;;;;;;11.83;7.30;;;;;;;10.95;100.00;97108.97;5011799;28;102018;-76
2023/10/02 02:47:07;;;;;;;11.90;7.50;;;;;;;10.86;100.00;97105.03;5010099;28;101851;-75
2023/10/02 02:49:48;;;;;;;12.73;7.50;;;;;;;10.95;100.00;97109.75;5010134;28;105256;-75
2023/10/02 02:52:19;;;;;;;12.60;7.40;;;;;;;10.81;100.00;97115.56;5009306;28;104467;-76
2023/10/02 02:54:47;;;;;;;15.43;9.00;;;;;;;10.72;100.00;97111.66;5010051;28;101859;-76
2023/10/02 02:57:25;;;;;;;11.70;7.60;;;;;;;10.72;100.00;97116.97;5009949;28;105443;-76
2023/10/02 03:00:24;;;;;;;11.03;7.03;;;;;;;10.62;100.00;97106.09;5009618;28;105650;-76
2023/10/02 03:02:46;;;;;;;12.40;7.27;;;;;;;10.74;100.00;97112.25;5009640;28;102002;-76
2023/10/02 03:05:14;;;;;;;12.33;6.80;;;;;;;10.65;100.00;97116.28;5009813;28;104923;-76
2023/10/02 03:07:42;;;;;;;10.43;7.27;;;;;;;10.67;100.00;97112.34;5012352;28;104262;-74
2023/10/02 03:10:12;;;;;;;10.47;7.60;;;;;;;10.70;100.00;97106.59;5009823;28;105375;-76
2023/10/02 03:12:44;;;;;;;10.13;7.13;;;;;;;10.70;100.00;97105.75;5009000;28;105349;-75
2023/10/02 03:15:17;;;;;;;14.53;7.77;;;;;;;10.69;100.00;97109.47;5009633;28;101792;-75
2023/10/02 03:17:45;;;;;;;12.43;7.93;;;;;;;10.74;100.00;97104.25;5009614;28;105449;-75
2023/10/02 03:20:23;;;;;;;10.90;7.73;;;;;;;10.75;100.00;97108.53;5008752;28;105461;-74
2023/10/02 03:22:54;;;;;;;14.17;8.83;;;;;;;10.75;100.00;97109.31;5009558;28;102257;-75
2023/10/02 03:25:40;;;;;;;13.30;8.80;;;;;;;10.79;100.00;97109.69;5010348;28;102795;-74
2023/10/02 03:28:16;;;;;;;15.00;8.93;;;;;;;10.80;100.00;97111.31;5008841;28;105159;-74
2023/10/02 03:30:47;;;;;;;14.30;9.30;;;;;;;10.74;100.00;97106.91;5012796;28;102003;-74
2023/10/02 03:33:19;;;;;;;12.17;8.03;;;;;;;10.75;100.00;97108.53;5008670;28;105539;-74
2023/10/02 03:36:07;;;;;;;15.10;9.80;;;;;;;10.70;100.00;97108.41;5009288;28;101834;-74
2023/10/02 03:38:36;;;;;;;13.40;8.07;;;;;;;10.72;100.00;97108.97;5009421;28;104952;-74
2023/10/02 03:41:05;;;;;;;13.53;9.37;;;;;;;10.66;100.00;97110.75;5008835;28;105485;-74
2023/10/02 03:43:43;;;;;;;15.23;9.17;;;;;;;10.69;100.00;97104.16;5009332;28;102773;-74
2023/10/02 03:46:16;;;;;;;15.73;9.57;;;;;;;10.68;100.00;97105.19;5009190;28;105446;-74
2023/10/02 03:48:51;;;;;;;13.40;8.90;;;;;;;10.73;100.00;97105.28;5008588;28;105297;-74
2023/10/02 03:51:35;;;;;;;13.43;8.20;;;;;;;10.73;100.00;97099.97;5009036;28;101837;-74
2023/10/02 03:54:17;;;;;;;13.83;8.47;;;;;;;10.73;100.00;97098.13;5011976;28;105400;-74
2023/10/02 03:56:47;;;;;;;13.33;9.10;;;;;;;10.76;100.00;97097.66;5010505;28;101779;-74
2023/10/02 03:59:16;;;;;;;15.50;9.17;;;;;;;10.75;100.00;97090.69;5010543;28;102594;-75
2023/10/02 04:01:47;;;;;;;13.30;8.80;;;;;;;10.70;100.00;97089.81;5009997;28;103030;-75
2023/10/02 04:04:21;;;;;;;13.43;8.23;;;;;;;10.64;100.00;97086.22;5008996;28;102223;-75
2023/10/02 04:06:50;;;;;;;13.53;9.07;;;;;;;10.69;100.00;97088.19;5008722;28;105344;-75
2023/10/02 04:09:21;;;;;;;11.53;8.73;;;;;;;10.54;100.00;97091.34;5009380;28;103200;-75
2023/10/02 04:11:52;;;;;;;10.87;7.87;;;;;;;10.54;100.00;97095.84;5010428;28;101947;-75
2023/10/02 04:14:31;;;;;;;10.77;7.20;;;;;;;10.46;100.00;97088.22;5013006;28;103099;-74
2023/10/02 04:17:09;;;;;;;13.33;9.40;;;;;;;10.48;100.00;97078.16;5008633;28;101918;-74
2023/10/02 04:19:36;;;;;;;12.07;8.60;;;;;;;10.49;100.00;97088.56;5008211;28;105354;-75
2023/10/02 04:22:07;;;;;;;12.10;8.30;;;;;;;10.39;100.00;97085.66;5008075;28;105672;-74
2023/10/02 04:24:50;;;;;;;12.17;8.80;;;;;;;10.44;100.00;97093.75;5008882;28;101879;-74
2023/10/02 04:27:19;;;;;;;14.20;9.43;;;;;;;10.47;100.00;97089.84;5008798;28;105042;-74
2023/10/02 04:30:18;;;;;;;11.03;8.50;;;;;;;10.48;100.00;97094.91;5009452;28;102769;-73
2023/10/02 04:32:39;;;;;;;11.83;9.10;;;;;;;10.59;100.00;97090.63;5008165;28;104518;-75
2023/10/02 04:35:40;;;;;;;14.27;8.97;;;;;;;10.56;100.00;97093.75;5008565;28;105059;-73
2023/10/02 04:37:57;;;;;;;13.03;9.80;;;;;;;10.56;100.00;97093.75;5014930;28;105575;-76
2023/10/02 04:40:23;;;;;;;13.13;9.63;;;;;;;10.44;100.00;97092.94;5029189;28;105383;-76
2023/10/02 04:43:14;;;;;;;10.33;9.20;;;;;;;10.38;100.00;97096.53;5012342;28;105305;-76
2023/10/02 04:45:44;;;;;;;10.57;8.83;;;;;;;10.40;100.00;97099.75;5012730;28;101835;-76
2023/10/02 04:48:12;;;;;;;10.97;8.40;;;;;;;10.42;100.00;97097.69;5012548;28;103919;-76
2023/10/02 04:50:45;;;;;;;10.10;8.40;;;;;;;10.19;100.00;97092.38;5012170;28;105638;-76
2023/10/02 04:53:22;;;;;;;9.50;7.80;;;;;;;10.29;100.00;97088.09;5012569;28;101998;-75
2023/10/02 04:56:06;;;;;;;11.00;7.87;;;;;;;10.19;100.00;97093.16;5014188;28;102537;-75
2023/10/02 04:58:39;;;;;;;12.03;9.97;;;;;;;10.21;100.00;97093.78;5012042;28;105121;-75
2023/10/02 05:01:28;;;;;;;10.00;8.67;;;;;;;10.32;100.00;97098.28;5015150;28;101860;-75
2023/10/02 05:04:02;;;;;;;10.67;8.53;;;;;;;10.39;100.00;97100.81;5010226;28;105665;-75
2023/10/02 05:06:44;;;;;;;9.27;8.27;;;;;;;10.35;100.00;97097.00;5010602;28;102027;-75
2023/10/02 05:09:25;;;;;;;8.90;8.00;;;;;;;10.31;100.00;97098.50;5011662;28;105369;-75
2023/10/02 05:11:58;;;;;;;10.70;8.60;;;;;;;10.31;100.00;97095.84;5012396;28;103181;-75
2023/10/02 05:14:28;;;;;;;9.27;8.27;;;;;;;10.36;100.00;97094.09;5028531;28;101822;-75
2023/10/02 05:17:38;;;;;;;9.03;7.90;;;;;;;10.30;100.00;97094.25;5011428;28;104952;-75
2023/10/02 05:20:13;;;;;;;8.53;7.23;;;;;;;10.17;100.00;97094.44;5010797;28;105913;-75
2023/10/02 05:22:41;;;;;;;8.93;8.03;;;;;;;10.16;100.00;97100.81;5011431;28;101985;-75
2023/10/02 05:25:08;;;;;;;10.10;8.60;;;;;;;10.27;100.00;97106.13;5014243;28;105736;-75
2023/10/02 05:27:37;;;;;;;8.70;7.80;;;;;;;10.36;100.00;97106.59;5011250;28;101901;-75
2023/10/02 05:30:05;;;;;;;9.00;7.83;;;;;;;10.33;100.00;97110.53;5011300;28;105019;-75
2023/10/02 05:32:36;;;;;;;8.63;7.53;;;;;;;10.27;100.00;97111.47;5010215;28;105657;-75
2023/10/02 05:35:16;;;;;;;12.83;8.70;;;;;;;10.23;100.00;97114.78;5011311;28;102144;-75
2023/10/02 05:37:46;;;;;;;10.37;8.10;;;;;;;10.27;100.00;97114.13;5011284;28;105675;-76
2023/10/02 05:45:47;;;;;;;10.90;8.00;;;;;;;10.27;100.00;97116.78;5009699;28;102610;-75
2023/10/02 05:48:15;;;;;;;9.47;7.77;;;;;;;10.39;100.00;97119.41;5013046;28;105910;-75
2023/10/02 05:50:47;;;;;;;10.33;8.57;;;;;;;10.50;100.00;97123.91;5011139;28;105535;-75
2023/10/02 05:53:16;;;;;;;10.93;8.90;;;;;;;10.58;100.00;97123.59;5010368;28;105240;-75
2023/10/02 05:58:33;;;;;;;9.33;7.40;;;;;;;10.56;100.00;97120.34;4995122;28;105585;-76
2023/10/02 06:01:03;;;;;;;11.90;8.50;;;;;;;10.51;100.00;97133.50;5010005;28;105373;-76
2023/10/02 06:03:34;;;;;;;10.13;7.37;;;;;;;10.63;100.00;97131.69;5010951;28;101895;-76
2023/10/02 06:06:18;;;;;;;11.97;7.93;;;;;;;10.68;100.00;97121.16;5027747;28;105040;-75
2023/10/02 06:08:49;;;;;;;11.00;8.50;;;;;;;10.79;100.00;97125.66;5010146;28;105104;-75
2023/10/02 06:11:33;;;;;;;11.50;8.67;;;;;;;10.96;100.00;97123.88;5014079;28;101809;-75
2023/10/02 06:14:10;;;;;;;10.23;8.33;;;;;;;11.03;100.00;97130.69;5011418;28;103248;-75
2023/10/02 06:16:39;;;;;;;12.23;8.40;;;;;;;11.05;100.00;97128.59;5010676;28;101840;-75
2023/10/02 06:19:13;;;;;;;11.73;8.93;;;;;;;11.09;100.00;97137.75;5010247;28;104968;-75
2023/10/02 06:21:46;;;;;;;11.37;8.27;;;;;;;11.22;100.00;97141.97;5009930;28;104392;-75
2023/10/02 06:24:17;;;;;;;9.63;8.07;;;;;;;11.30;100.00;97134.44;5010409;28;101856;-75
2023/10/02 06:26:57;;;;;;;9.37;8.20;;;;;;;11.44;100.00;97140.31;5011743;28;103639;-75
2023/10/02 06:29:25;;;;;;;10.10;9.07;;;;;;;11.62;100.00;97134.81;5009802;28;105078;-75
2023/10/02 06:31:58;;;;;;;10.73;9.60;;;;;;;11.73;100.00;97145.41;5013618;28;102051;-75
2023/10/02 06:34:36;;;;;;;14.27;10.73;;;;;;;11.89;100.00;97135.84;5009911;28;105762;-75
2023/10/02 06:37:07;;;;;;;12.20;10.07;;;;;;;12.00;100.00;97142.97;5009333;28;102010;-75
2023/10/02 06:39:36;;;;;;;11.27;10.13;;;;;;;12.23;100.00;97146.31;5009215;28;105660;-75
2023/10/02 06:42:05;;;;;;;12.63;10.27;;;;;;;12.41;100.00;97142.56;5009356;28;106076;-75
2023/10/02 06:44:38;;;;;;;12.97;10.90;;;;;;;12.54;100.00;97142.25;5009580;28;101979;-75
2023/10/02 06:47:11;;;;;;;12.80;11.50;;;;;;;12.72;100.00;97139.31;5006847;28;105270;-75
2023/10/02 06:49:43;;;;;;;13.53;11.40;;;;;;;12.91;100.00;97146.78;4995179;28;105812;-75
2023/10/02 06:52:17;;;;;;;15.50;12.00;;;;;;;13.11;100.00;97147.09;5008879;28;102048;-75
2023/10/02 06:54:48;;;;;;;14.23;12.07;;;;;;;13.42;100.00;97135.72;5012380;28;105286;-75
2023/10/02 06:57:17;;;;;;;17.50;13.10;;;;;;;13.59;100.00;97141.00;5009027;28;101883;-75
2023/10/02 06:59:52;;;;;;;17.33;12.27;;;;;;;13.68;100.00;97140.28;5008109;28;105810;-75
2023/10/02 07:02:24;;;;;;;15.17;12.50;;;;;;;13.81;100.00;97150.59;5010318;28;103219;-75
2023/10/02 07:04:53;;;;;;;17.90;13.50;;;;;;;14.01;100.00;97153.44;5009240;28;102031;-75
2023/10/02 07:07:24;;;;;;;16.03;13.37;;;;;;;14.06;100.00;97155.38;5009157;28;105177;-75
2023/10/02 07:09:54;;;;;;;22.83;14.17;;;;;;;14.18;100.00;97150.69;5008962;28;105557;-75
2023/10/02 07:12:22;;;;;;;19.43;13.50;;;;;;;14.31;100.00;97160.97;5008920;28;102027;-75
2023/10/02 07:14:49;;;;;;;17.77;14.00;;;;;;;14.40;100.00;97159.47;5009018;28;105043;-75
2023/10/02 07:17:22;;;;;;;18.50;13.13;;;;;;;14.45;100.00;97162.19;5012004;28;104409;-75
2023/10/02 07:19:50;;;;;;;19.03;14.33;;;;;;;14.60;100.00;97160.41;5008511;28;105222;-75
2023/10/02 07:22:18;;;;;;;20.70;13.17;;;;;;;14.85;100.00;97155.25;5007985;28;105298;-75
2023/10/02 07:24:47;;;;;;;22.00;13.90;;;;;;;15.09;100.00;97159.13;5008886;28;102241;-75
2023/10/02 07:27:27;;;;;;;19.67;12.47;;;;;;;15.19;100.00;97153.00;5008934;28;105523;-75
2023/10/02 07:29:56;;;;;;;19.73;13.57;;;;;;;15.43;100.00;97160.38;4995619;28;104259;-76
2023/10/02 07:32:25;;;;;;;19.20;12.73;;;;;;;15.65;100.00;97155.63;4989187;28;101916;-76
2023/10/02 07:34:53;;;;;;;22.93;13.10;;;;;;;15.72;100.00;97147.34;4996275;28;104669;-77
2023/10/02 07:37:25;;;;;;;22.57;12.83;;;;;;;15.95;100.00;97146.88;5008081;28;105381;-75
2023/10/02 07:39:57;;;;;;;22.40;13.67;;;;;;;16.12;100.00;97147.44;5013713;28;101793;-76
2023/10/02 07:42:28;;;;;;;20.70;12.70;;;;;;;16.14;100.00;97143.41;5009679;28;102753;-76
2023/10/02 07:45:11;;;;;;;24.70;13.50;;;;;;;16.24;100.00;97138.06;5007185;28;101952;-75
2023/10/02 07:47:55;;;;;;;19.67;12.73;;;;;;;16.46;100.00;97132.47;5009902;28;102847;-76
2023/10/02 07:50:33;;;;;;;22.17;13.70;;;;;;;16.76;100.00;97130.56;5006571;28;105627;-76
2023/10/02 07:53:04;;;;;;;22.00;12.40;;;;;;;16.82;100.00;97131.34;5008659;28;101864;-73
2023/10/02 07:55:32;;;;;;;22.23;12.67;;;;;;;16.94;100.00;97131.88;5008753;28;105261;-72
2023/10/02 07:58:01;;;;;;;23.30;13.07;;;;;;;17.08;100.00;97130.22;5007959;28;105742;-73
2023/10/02 08:00:38;;;;;;;21.83;12.43;;;;;;;17.18;100.00;97132.88;5008280;28;102036;-73
2023/10/02 08:05:57;;;;;;;23.30;12.73;;;;;;;17.46;100.00;97130.38;5007964;28;101993;-73
2023/10/02 08:08:26;;;;;;;23.30;12.83;;;;;;;17.51;100.00;97124.16;5008618;28;104930;-73
2023/10/02 08:10:54;;;;;;;21.87;12.17;;;;;;;17.40;100.00;97133.38;5008924;28;102687;-73
2023/10/02 08:13:32;;;;;;;23.87;13.07;;;;;;;17.63;100.00;97130.84;5008569;28;102061;-73
2023/10/02 08:16:08;;;;;;;21.73;12.00;;;;;;;17.52;100.00;97134.66;5008501;28;105612;-73
2023/10/02 08:18:55;;;;;;;23.00;11.93;;;;;;;17.46;100.00;97132.25;5007904;28;105781;-73
2023/10/02 08:21:34;;;;;;;21.87;11.37;;;;;;;17.54;100.00;97126.31;5008462;28;102050;-73
2023/10/02 08:24:04;;;;;;;20.87;12.40;;;;;;;17.94;100.00;97134.16;5009767;28;101728;-73
2023/10/02 08:26:40;;;;;;;18.37;11.00;;;;;;;17.99;100.00;97126.84;5011098;28;101873;-73
2023/10/02 08:29:13;;;;;;;23.57;11.97;;;;;;;18.20;100.00;97132.94;5008156;28;105176;-73
2023/10/02 08:31:44;;;;;;;22.97;12.17;;;;;;;18.27;100.00;97133.41;5008077;28;106258;-73
2023/10/02 08:34:12;;;;;;;20.77;11.47;;;;;;;18.39;100.00;97136.56;5008267;28;101986;-73
2023/10/02 08:36:40;;;;;;;20.30;11.57;;;;;;;18.48;100.00;97127.59;5009387;28;102874;-73
2023/10/02 08:39:08;;;;;;;21.07;11.97;;;;;;;18.26;100.00;97129.09;5007701;28;105655;-73
2023/10/02 08:41:43;;;;;;;21.83;12.30;;;;;;;18.51;100.00;97129.75;5008195;28;101886;-74
2023/10/02 08:44:23;;;;;;;22.57;11.40;;;;;;;18.81;100.00;97129.44;5008217;28;105375;-73
2023/10/02 08:46:49;;;;;;;22.43;12.07;;;;;;;18.84;100.00;97126.19;5011240;28;105108;-73
2023/10/02 08:49:17;;;;;;;20.30;12.33;;;;;;;18.95;100.00;97129.59;5008124;28;105020;-73
2023/10/02 08:51:49;;;;;;;21.40;12.80;;;;;;;19.17;100.00;97121.78;5007533;28;105189;-73
2023/10/02 08:54:17;;;;;;;22.60;12.27;;;;;;;19.45;100.00;97118.28;5006489;28;101860;-73
2023/10/02 08:56:45;;;;;;;22.97;13.03;;;;;;;19.65;100.00;97112.63;5009016;28;102662;-73
2023/10/02 08:59:18;;;;;;;23.63;12.37;;;;;;;19.83;100.00;97111.84;5007033;28;105660;-72
2023/10/02 09:01:47;;;;;;;26.73;13.43;;;;;;;19.93;100.00;97111.69;5007545;28;102317;-73
2023/10/02 09:04:29;;;;;;;24.20;13.07;;;;;;;19.92;100.00;97104.69;5008756;28;102543;-73
2023/10/02 09:07:04;;;;;;;22.87;13.23;;;;;;;20.14;100.00;97113.84;5007004;28;105590;-73
2023/10/02 09:09:44;;;;;;;25.70;14.30;;;;;;;20.42;100.00;97101.22;5010731;28;101778;-73
2023/10/02 09:12:15;;;;;;;26.33;15.07;;;;;;;20.43;100.00;97103.66;5006912;28;105325;-73
2023/10/02 09:14:51;;;;;;;28.57;15.60;;;;;;;20.52;100.00;97103.78;5008631;28;101845;-73
2023/10/02 09:17:19;;;;;;;26.07;14.67;;;;;;;20.45;100.00;97108.75;5007386;28;105868;-73
2023/10/02 09:19:54;;;;;;;29.17;15.93;;;;;;;20.38;100.00;97095.63;5006471;28;105706;-73
2023/10/02 09:22:23;;;;;;;25.93;14.20;;;;;;;20.42;100.00;97095.81;5007532;28;102156;-73
2023/10/02 09:25:12;;;;;;;29.77;16.07;;;;;;;20.30;100.00;97093.59;5010368;28;104363;-73
2023/10/02 09:27:55;;;;;;;29.20;15.93;;;;;;;20.46;100.00;97099.56;5011874;28;103011;-73
2023/10/02 09:30:36;;;;;;;27.10;15.57;;;;;;;20.81;100.00;97099.75;5012130;28;102010;-74
2023/10/02 09:33:11;;;;;;;27.27;15.00;;;;;;;21.10;100.00;97104.94;5013744;28;105071;-74
2023/10/02 09:35:42;;;;;;;26.43;14.93;;;;;;;21.15;100.00;97091.31;5012346;28;101693;-74
2023/10/02 09:38:13;;;;;;;32.17;15.27;;;;;;;20.73;100.00;97096.91;5010601;28;105208;-74
2023/10/02 09:41:01;;;;;;;27.77;15.83;;;;;;;20.92;100.00;97092.28;5010187;28;104488;-73
2023/10/02 09:43:31;;;;;;;26.27;15.03;;;;;;;21.20;100.00;97091.22;5009540;28;101991;-73
2023/10/02 09:46:05;;;;;;;27.87;15.57;;;;;;;21.17;100.00;97089.91;5010612;28;104280;-73
2023/10/02 09:49:01;;;;;;;26.27;15.13;;;;;;;21.19;100.00;97087.69;5010010;28;105526;-73
2023/10/02 09:51:38;;;;;;;28.00;15.37;;;;;;;21.51;100.00;97079.47;5010536;28;101851;-73
2023/10/02 09:54:17;;;;;;;25.60;14.70;;;;;;;21.56;100.00;97076.66;5008004;28;105518;-72
2023/10/02 09:57:04;;;;;;;29.60;16.00;;;;;;;21.59;100.00;97096.91;5012932;28;105968;-72
2023/10/02 09:59:37;;;;;;;30.43;15.50;;;;;;;21.59;100.00;97078.72;5010331;28;105352;-72
2023/10/02 10:03:14;;;;;;;;;;;;;;;;;;;;;
2023/10/02 10:09:25;;;;;;;26.37;15.63;;;;;;;21.39;100.00;97075.66;5050562;27;101698;-73
2023/10/02 10:14:40;;;;;;;25.23;14.83;;;;;;;22.08;100.00;97083.38;5045576;27;101829;-73
2023/10/02 10:17:13;;;;;;;28.07;15.93;;;;;;;22.13;100.00;97083.25;5044443;27;105101;-72
2023/10/02 10:19:43;;;;;;;28.23;15.83;;;;;;;22.17;100.00;97073.41;5044844;27;105085;-73
2023/10/02 10:22:36;;;;;;;27.23;14.57;;;;;;;22.61;100.00;97070.72;5045037;27;103617;-73
2023/10/02 10:25:44;;;;;;;28.63;16.53;;;;;;;22.35;100.00;97067.78;5034869;27;105216;-73
2023/10/02 10:28:27;;;;;;;27.33;15.77;;;;;;;22.36;100.00;97065.88;5078604;27;105654;-73
2023/10/02 10:30:56;;;;;;;27.93;15.77;;;;;;;22.44;94.68;97068.69;5048968;27;102137;-73
2023/10/02 10:33:35;;;;;;;27.73;15.80;;;;;;;22.45;98.74;97066.78;5044527;27;105696;-73
2023/10/02 10:36:09;;;;;;;29.83;15.70;;;;;;;22.77;96.96;97064.59;5045101;27;101843;-73
2023/10/02 10:38:36;;;;;;;26.63;15.27;;;;;;;23.00;100.00;97062.63;5045323;27;104831;-73
2023/10/02 10:41:09;;;;;;;26.10;15.47;;;;;;;23.19;93.99;97060.47;5044704;27;105520;-73
2023/10/02 10:43:55;;;;;;;28.53;15.93;;;;;;;23.15;93.40;97056.78;5044963;27;101968;-73
2023/10/02 10:46:27;;;;;;;27.50;15.30;;;;;;;23.17;92.81;97055.34;5044858;27;105326;-73
2023/10/02 10:49:07;;;;;;;26.93;15.17;;;;;;;23.40;97.54;97062.31;5044718;27;105605;-73
2023/10/02 10:51:34;;;;;;;29.07;15.93;;;;;;;22.94;90.70;97056.53;5044793;27;102059;-73
2023/10/02 10:54:19;;;;;;;28.00;15.90;;;;;;;23.41;92.71;97055.78;5047761;27;103966;-73
2023/10/02 10:56:58;;;;;;;29.33;15.67;;;;;;;23.90;98.90;97051.88;5044257;27;101977;-73
2023/10/02 10:59:32;;;;;;;26.77;16.10;;;;;;;23.52;89.19;97053.56;5045312;27;105775;-72
2023/10/02 11:02:12;;;;;;;29.77;15.87;;;;;;;24.26;94.07;97047.72;5043603;27;105394;-73
2023/10/02 11:04:47;;;;;;;25.57;15.73;;;;;;;24.39;79.47;97045.94;5044665;27;102067;-73
2023/10/02 11:07:21;;;;;;;25.47;14.67;;;;;;;24.59;80.54;97037.97;5044194;27;105835;-73
2023/10/02 11:12:54;;;;;;;24.20;14.80;;;;;;;25.08;87.16;97039.22;5043403;27;101895;-73
2023/10/02 11:15:45;;;;;;;23.23;14.87;;;;;;;24.83;76.27;97037.38;5044737;27;105322;-73
2023/10/02 11:18:18;;;;;;;25.63;14.53;;;;;;;25.21;72.07;97027.28;5043332;27;105589;-73
2023/10/02 11:20:49;;;;;;;26.30;15.53;;;;;;;25.63;70.78;97024.38;5031003;28;105278;-73
2023/10/02 11:23:37;;;;;;;27.30;15.87;;;;;;;25.47;77.67;97019.81;5030313;28;105656;-73
2023/10/02 11:26:10;;;;;;;27.03;15.57;;;;;;;25.86;63.76;97016.66;5030975;28;102050;-73
2023/10/02 11:28:41;;;;;;;28.20;15.77;;;;;;;25.89;62.36;97010.56;5030884;28;104979;-73
2023/10/02 11:31:30;;;;;;;29.00;16.13;;;;;;;25.88;62.29;97008.97;5030236;28;105056;-73
2023/10/02 11:34:02;;;;;;;27.93;15.80;;;;;;;25.81;60.07;97004.03;5032222;27;101727;-73
2023/10/02 11:36:33;;;;;;;25.97;14.93;;;;;;;25.63;61.86;97007.22;5030872;28;105429;-73
2023/10/02 11:39:08;;;;;;;26.10;15.13;;;;;;;25.72;61.44;97005.25;5030324;28;105366;-73
2023/10/02 11:41:39;;;;;;;27.13;15.77;;;;;;;26.02;70.40;97004.06;5030738;28;101890;-74
2023/10/02 11:44:10;;;;;;;24.90;14.67;;;;;;;26.37;65.97;96999.91;5021787;28;105421;-74
2023/10/02 11:46:38;;;;;;;24.00;14.90;;;;;;;26.48;74.32;96992.88;5030682;28;101785;-74
2023/10/02 11:49:05;;;;;;;24.40;15.50;;;;;;;26.59;63.70;96992.13;5031937;27;102697;-74
2023/10/02 11:51:33;;;;;;;27.77;16.27;;;;;;;26.51;63.74;96994.91;5030161;28;105562;-73
2023/10/02 11:54:05;;;;;;;27.57;16.23;;;;;;;26.78;65.02;96989.69;5030422;28;101926;-73
2023/10/02 11:56:34;;;;;;;25.30;15.30;;;;;;;26.70;63.36;96982.38;5030608;28;105722;-73
2023/10/02 11:59:02;;;;;;;23.83;15.33;;;;;;;26.72;67.46;96980.13;5029995;28;105837;-73
2023/10/02 12:01:30;;;;;;;24.53;15.60;;;;;;;26.62;53.44;96979.75;5030211;28;101837;-73
2023/10/02 12:03:57;;;;;;;25.97;15.47;;;;;;;26.42;61.43;96977.88;5032928;28;105301;-73
2023/10/02 12:06:25;;;;;;;24.87;15.33;;;;;;;26.67;62.73;96984.97;5030276;28;101953;-73